^^
B2 Weather Station Historical Data
Daily Summary for April 26, 2019 Units:  English    Metric   Both
Daily Weekly Monthly Yearly Custom
  High: Low: Average:
Temperature: 64.1 °F 48.5 °F 55.5 °F
Dew Point: 49.9 °F 30.4 °F 39.6 °F
Humidity: 93% 29% 59%
Wind Speed: 25.3mph 3.5mph 13.1mph
Wind Gust: 18.6mph - -
Wind- - WNW
Pressure: 29.93 in 29.66 in -
Precipitation: 0.05 in    
Historical Graphs
 
 
Tabular Data for April 26, 2019
Time Temperature Dew Point Pressure Wind Wind Speed Wind Gust Humidity Rainfall Rate (Hourly) solar
00:04 54.2 °F 47.8 °F 29.67 in North 15.0 mph 11.7 mph 79% 0.00 in 0.00 W/m2
00:09 53.8 °F 48.8 °F 29.68 in NNW 17.3 mph 12.2 mph 83% 0.00 in 0.00 W/m2
00:14 53.5 °F 49.4 °F 29.67 in North 19.6 mph 11.8 mph 86% 0.00 in 0.00 W/m2
00:19 53.3 °F 49.5 °F 29.68 in North 18.0 mph 12.9 mph 87% 0.00 in 0.00 W/m2
00:24 53.1 °F 49.9 °F 29.68 in NNW 18.0 mph 15.3 mph 89% 0.00 in 0.00 W/m2
00:29 53.0 °F 49.8 °F 29.68 in North 13.8 mph 12.0 mph 89% 0.00 in 0.00 W/m2
00:34 52.8 °F 49.6 °F 29.68 in North 19.6 mph 11.0 mph 89% 0.00 in 0.00 W/m2
00:39 52.6 °F 49.4 °F 29.68 in North 15.0 mph 12.0 mph 89% 0.00 in 0.00 W/m2
00:44 52.4 °F 49.6 °F 29.68 in NNW 15.0 mph 10.2 mph 90% 0.00 in 0.00 W/m2
00:49 52.3 °F 49.5 °F 29.68 in NNW 15.0 mph 9.2 mph 90% 0.01 in 0.00 W/m2
00:54 52.0 °F 49.5 °F 29.68 in NNW 16.1 mph 10.7 mph 91% 0.01 in 0.00 W/m2
00:59 51.8 °F 49.3 °F 29.68 in North 17.3 mph 12.8 mph 91% 0.01 in 0.00 W/m2
01:04 51.6 °F 49.1 °F 29.69 in North 15.0 mph 11.2 mph 91% 0.01 in 0.00 W/m2
01:09 51.5 °F 49.0 °F 29.69 in NW 13.8 mph 10.1 mph 91% 0.01 in 0.00 W/m2
01:14 51.4 °F 48.9 °F 29.69 in North 12.7 mph 8.5 mph 91% 0.02 in 0.00 W/m2
01:19 51.2 °F 48.7 °F 29.68 in North 16.1 mph 11.2 mph 91% 0.02 in 0.00 W/m2
01:24 51.0 °F 48.5 °F 29.68 in NNW 19.6 mph 12.6 mph 91% 0.02 in 0.00 W/m2
01:29 50.9 °F 48.4 °F 29.69 in NNW 19.6 mph 11.1 mph 91% 0.02 in 0.00 W/m2
01:34 50.7 °F 48.2 °F 29.69 in North 19.6 mph 17.4 mph 91% 0.03 in 0.00 W/m2
01:39 50.6 °F 48.1 °F 29.69 in NNW 19.6 mph 13.3 mph 91% 0.03 in 0.00 W/m2
01:44 50.5 °F 48.0 °F 29.69 in North 16.1 mph 14.1 mph 91% 0.03 in 0.00 W/m2
01:49 50.5 °F 48.0 °F 29.69 in North 15.0 mph 12.9 mph 91% 0.03 in 0.00 W/m2
01:54 50.4 °F 48.2 °F 29.69 in NNW 18.4 mph 11.5 mph 92% 0.03 in 0.00 W/m2
01:59 50.4 °F 48.2 °F 29.69 in NW 18.4 mph 13.2 mph 92% 0.03 in 0.00 W/m2
02:04 50.5 °F 48.3 °F 29.69 in NNW 18.4 mph 13.2 mph 92% 0.03 in 0.00 W/m2
02:09 50.5 °F 48.3 °F 29.69 in NW 18.4 mph 13.7 mph 92% 0.03 in 0.00 W/m2
02:14 50.5 °F 48.3 °F 29.69 in NNW 21.9 mph 16.4 mph 92% 0.02 in 0.00 W/m2
02:19 50.4 °F 47.9 °F 29.69 in NNW 25.3 mph 18.6 mph 91% 0.03 in 0.00 W/m2
02:24 50.3 °F 47.8 °F 29.68 in North 19.6 mph 12.2 mph 91% 0.03 in 0.00 W/m2
02:29 50.1 °F 47.6 °F 29.67 in NNW 12.0 mph 10.8 mph 91% 0.03 in 0.00 W/m2
02:34 50.0 °F 47.5 °F 29.67 in North 11.0 mph 8.4 mph 91% 0.02 in 0.00 W/m2
02:39 50.0 °F 47.5 °F 29.66 in North 12.7 mph 7.0 mph 91% 0.02 in 0.00 W/m2
02:44 49.9 °F 47.4 °F 29.66 in NNE 11.5 mph 6.9 mph 91% 0.02 in 0.00 W/m2
02:49 49.8 °F 47.3 °F 29.67 in NNW 13.8 mph 9.0 mph 91% 0.01 in 0.00 W/m2
02:54 49.8 °F 47.3 °F 29.67 in North 11.5 mph 9.3 mph 91% 0.01 in 0.00 W/m2
02:59 49.9 °F 47.1 °F 29.68 in NNW 13.8 mph 9.9 mph 90% 0.01 in 0.00 W/m2
03:05 50.0 °F 47.2 °F 29.68 in North 17.3 mph 12.1 mph 90% 0.01 in 0.00 W/m2
03:09 50.0 °F 46.9 °F 29.68 in NNW 13.8 mph 10.1 mph 89% 0.01 in 0.00 W/m2
03:14 50.0 °F 47.2 °F 29.69 in NW 11.5 mph 3.8 mph 90% 0.01 in 0.00 W/m2
03:19 50.0 °F 47.2 °F 29.69 in NW 8.1 mph 5.2 mph 90% 0.00 in 0.00 W/m2
03:24 50.0 °F 47.2 °F 29.69 in NNW 8.1 mph 6.3 mph 90% 0.00 in 0.00 W/m2
03:30 49.9 °F 47.1 °F 29.69 in NNW 11.5 mph 6.4 mph 90% 0.00 in 0.00 W/m2
03:34 49.9 °F 47.1 °F 29.69 in NNW 11.5 mph 7.6 mph 90% 0.00 in 0.00 W/m2
03:39 49.9 °F 47.1 °F 29.70 in NW 8.1 mph 6.0 mph 90% 0.00 in 0.00 W/m2
03:44 49.9 °F 47.1 °F 29.70 in NW 9.2 mph 5.1 mph 90% 0.00 in 0.00 W/m2
03:50 49.9 °F 47.1 °F 29.70 in NNW 15.0 mph 7.9 mph 90% 0.00 in 0.00 W/m2
03:54 49.9 °F 46.8 °F 29.70 in NNW 11.5 mph 7.5 mph 89% 0.00 in 0.00 W/m2
03:59 49.9 °F 46.8 °F 29.71 in NNW 9.2 mph 4.5 mph 89% 0.00 in 0.00 W/m2
04:05 49.9 °F 46.8 °F 29.70 in NW 10.4 mph 5.3 mph 89% 0.00 in 0.00 W/m2
04:09 49.8 °F 46.7 °F 29.71 in NW 9.2 mph 4.3 mph 89% 0.00 in 0.00 W/m2
04:14 49.8 °F 46.7 °F 29.71 in NW 8.1 mph 5.2 mph 89% 0.00 in 0.00 W/m2
04:19 49.7 °F 46.9 °F 29.71 in NW 9.2 mph 4.8 mph 90% 0.00 in 0.00 W/m2
04:24 49.6 °F 46.8 °F 29.71 in NW 6.0 mph 5.0 mph 90% 0.00 in 0.00 W/m2
04:29 49.5 °F 46.7 °F 29.71 in NW 8.1 mph 6.6 mph 90% 0.00 in 0.00 W/m2
04:34 49.5 °F 46.7 °F 29.71 in NW 8.1 mph 5.5 mph 90% 0.00 in 0.00 W/m2
04:39 49.4 °F 46.6 °F 29.71 in NW 6.9 mph 2.2 mph 90% 0.00 in 0.00 W/m2
04:44 49.3 °F 46.5 °F 29.71 in NW 8.1 mph 1.7 mph 90% 0.00 in 0.00 W/m2
04:50 49.2 °F 46.4 °F 29.71 in NW 9.2 mph 5.7 mph 90% 0.00 in 0.00 W/m2
04:54 49.1 °F 46.6 °F 29.71 in NW 5.8 mph 3.1 mph 91% 0.00 in 0.00 W/m2
04:59 49.1 °F 46.6 °F 29.71 in West 9.2 mph 3.7 mph 91% 0.00 in 0.00 W/m2
05:04 49.0 °F 46.5 °F 29.71 in WNW 6.9 mph 2.8 mph 91% 0.00 in 0.00 W/m2
05:09 48.9 °F 46.4 °F 29.71 in WNW 5.8 mph 2.1 mph 91% 0.00 in 0.00 W/m2
05:14 48.9 °F 46.4 °F 29.72 in WNW 6.9 mph 3.9 mph 91% 0.00 in 0.00 W/m2
05:19 48.8 °F 46.3 °F 29.72 in NNW 5.0 mph 2.7 mph 91% 0.00 in 0.00 W/m2
05:24 48.8 °F 46.3 °F 29.72 in NW 10.4 mph 6.1 mph 91% 0.00 in 0.00 W/m2
05:29 48.8 °F 46.6 °F 29.72 in NW 11.5 mph 7.1 mph 92% 0.00 in 0.00 W/m2
05:34 48.8 °F 46.3 °F 29.72 in WNW 9.2 mph 3.6 mph 91% 0.00 in 0.00 W/m2
05:39 48.7 °F 46.2 °F 29.72 in NNW 10.0 mph 6.9 mph 91% 0.00 in 0.00 W/m2
05:45 48.7 °F 46.5 °F 29.72 in WNW 5.8 mph 3.9 mph 92% 0.00 in 0.00 W/m2
05:49 48.7 °F 46.5 °F 29.72 in NW 11.5 mph 5.0 mph 92% 0.00 in 0.00 W/m2
05:54 48.7 °F 46.5 °F 29.72 in West 4.6 mph 4.6 mph 92% 0.00 in 0.00 W/m2
05:59 48.7 °F 46.5 °F 29.72 in WNW 6.9 mph 3.4 mph 92% 0.00 in 0.00 W/m2
06:04 48.6 °F 46.4 °F 29.72 in West 5.0 mph 2.5 mph 92% 0.00 in 5.00 W/m2
06:09 48.6 °F 46.4 °F 29.72 in West 9.0 mph 4.0 mph 92% 0.00 in 7.00 W/m2
06:14 48.7 °F 46.5 °F 29.73 in NW 10.4 mph 5.2 mph 92% 0.00 in 9.00 W/m2
06:19 48.8 °F 46.6 °F 29.73 in NNW 11.5 mph 6.3 mph 92% 0.00 in 12.00 W/m2
06:24 48.9 °F 46.7 °F 29.73 in West 10.4 mph 7.2 mph 92% 0.00 in 12.00 W/m2
06:29 48.8 °F 46.6 °F 29.73 in SW 6.9 mph 3.4 mph 92% 0.00 in 14.00 W/m2
06:34 48.8 °F 46.6 °F 29.73 in WNW 8.1 mph 5.0 mph 92% 0.00 in 14.00 W/m2
06:39 48.8 °F 46.9 °F 29.73 in West 11.5 mph 5.1 mph 93% 0.00 in 16.00 W/m2
06:44 48.7 °F 46.8 °F 29.73 in SW 10.4 mph 6.1 mph 93% 0.00 in 18.00 W/m2
06:49 48.7 °F 46.8 °F 29.73 in West 9.2 mph 4.4 mph 93% 0.00 in 21.00 W/m2
06:55 48.6 °F 46.7 °F 29.73 in WSW 9.2 mph 4.8 mph 93% 0.00 in 26.00 W/m2
06:59 48.5 °F 46.6 °F 29.73 in WNW 9.2 mph 6.6 mph 93% 0.00 in 46.00 W/m2
07:04 48.6 °F 46.7 °F 29.73 in SSW 9.2 mph 3.9 mph 93% 0.00 in 86.00 W/m2
07:09 48.7 °F 46.8 °F 29.73 in WNW 11.5 mph 5.0 mph 93% 0.00 in 70.00 W/m2
07:14 48.8 °F 46.9 °F 29.73 in WNW 10.4 mph 6.4 mph 93% 0.00 in 134.00 W/m2
07:19 49.0 °F 46.8 °F 29.73 in WSW 16.1 mph 9.9 mph 92% 0.00 in 130.00 W/m2
07:24 49.1 °F 46.9 °F 29.74 in NW 11.5 mph 5.5 mph 92% 0.00 in 186.00 W/m2
07:30 49.4 °F 46.6 °F 29.74 in West 16.1 mph 7.8 mph 90% 0.00 in 195.00 W/m2
07:34 49.7 °F 46.3 °F 29.73 in SW 16.0 mph 8.7 mph 88% 0.00 in 211.00 W/m2
07:39 50.1 °F 46.1 °F 29.74 in West 11.5 mph 8.6 mph 86% 0.00 in 220.00 W/m2
07:44 50.3 °F 46.0 °F 29.74 in WNW 11.5 mph 8.3 mph 85% 0.00 in 227.00 W/m2
07:49 50.5 °F 45.5 °F 29.74 in WNW 17.3 mph 8.3 mph 83% 0.00 in 236.00 W/m2
07:55 50.8 °F 45.5 °F 29.74 in NW 12.0 mph 7.0 mph 82% 0.00 in 250.00 W/m2
07:59 50.9 °F 45.3 °F 29.74 in WNW 11.5 mph 8.2 mph 81% 0.00 in 271.00 W/m2
08:04 51.2 °F 45.6 °F 29.74 in WNW 11.5 mph 10.9 mph 81% 0.00 in 294.00 W/m2
08:09 51.5 °F 45.2 °F 29.74 in NW 13.0 mph 8.3 mph 79% 0.00 in 304.00 W/m2
08:14 51.7 °F 45.1 °F 29.74 in NNW 16.1 mph 10.6 mph 78% 0.00 in 295.00 W/m2
08:19 51.8 °F 44.5 °F 29.74 in NW 13.8 mph 11.4 mph 76% 0.00 in 295.00 W/m2
08:24 52.2 °F 44.9 °F 29.75 in NW 11.5 mph 8.9 mph 76% 0.00 in 294.00 W/m2
08:29 52.4 °F 44.0 °F 29.75 in West 17.3 mph 12.7 mph 73% 0.00 in 313.00 W/m2
08:34 52.6 °F 44.2 °F 29.75 in NW 16.1 mph 11.3 mph 73% 0.00 in 343.00 W/m2
08:39 53.0 °F 44.6 °F 29.75 in NW 12.7 mph 9.3 mph 73% 0.00 in 380.00 W/m2
08:44 53.1 °F 43.9 °F 29.75 in NW 15.0 mph 10.9 mph 71% 0.00 in 390.00 W/m2
08:49 53.4 °F 43.9 °F 29.75 in NW 16.1 mph 12.0 mph 70% 0.00 in 401.00 W/m2
08:54 53.7 °F 44.1 °F 29.75 in NW 16.1 mph 9.4 mph 70% 0.00 in 413.00 W/m2
08:59 54.0 °F 43.7 °F 29.75 in WNW 18.4 mph 12.7 mph 68% 0.00 in 427.00 W/m2
09:04 54.3 °F 44.3 °F 29.76 in NW 13.8 mph 9.1 mph 69% 0.00 in 448.00 W/m2
09:09 54.4 °F 43.7 °F 29.75 in NW 19.6 mph 10.5 mph 67% 0.00 in 473.00 W/m2
09:14 54.6 °F 44.2 °F 29.76 in NNW 11.0 mph 8.5 mph 68% 0.00 in 497.00 W/m2
09:19 55.1 °F 44.7 °F 29.76 in NW 13.8 mph 11.0 mph 68% 0.00 in 529.00 W/m2
09:24 55.0 °F 42.6 °F 29.76 in NW 18.4 mph 10.1 mph 63% 0.00 in 566.00 W/m2
09:29 55.1 °F 42.7 °F 29.77 in NNW 18.4 mph 11.3 mph 63% 0.00 in 591.00 W/m2
09:35 55.3 °F 41.6 °F 29.77 in WNW 19.6 mph 10.9 mph 60% 0.00 in 622.00 W/m2
09:39 55.2 °F 41.5 °F 29.77 in NNW 21.9 mph 10.1 mph 60% 0.00 in 647.00 W/m2
09:44 55.4 °F 41.7 °F 29.78 in WNW 17.3 mph 11.9 mph 60% 0.00 in 664.00 W/m2
09:50 55.7 °F 41.1 °F 29.78 in NW 18.4 mph 12.4 mph 58% 0.00 in 679.00 W/m2
09:54 55.9 °F 42.2 °F 29.78 in NNW 16.1 mph 7.9 mph 60% 0.00 in 691.00 W/m2
09:59 56.3 °F 41.7 °F 29.78 in NW 16.1 mph 11.9 mph 58% 0.00 in 705.00 W/m2
10:04 56.4 °F 41.8 °F 29.78 in NW 12.7 mph 11.0 mph 58% 0.00 in 715.00 W/m2
10:10 56.3 °F 40.3 °F 29.79 in NW 21.9 mph 13.5 mph 55% 0.00 in 728.00 W/m2
10:14 56.6 °F 41.1 °F 29.79 in NNW 19.6 mph 9.8 mph 56% 0.00 in 740.00 W/m2
10:20 57.0 °F 40.0 °F 29.79 in West 15.0 mph 9.6 mph 53% 0.00 in 751.00 W/m2
10:24 56.9 °F 39.9 °F 29.79 in NNW 17.3 mph 11.0 mph 53% 0.00 in 763.00 W/m2
10:29 57.0 °F 40.0 °F 29.79 in WNW 19.6 mph 11.7 mph 53% 0.00 in 768.00 W/m2
10:34 57.3 °F 40.3 °F 29.79 in NW 19.6 mph 8.8 mph 53% 0.00 in 782.00 W/m2
10:39 57.8 °F 39.8 °F 29.80 in NW 20.7 mph 13.3 mph 51% 0.00 in 789.00 W/m2
10:44 58.1 °F 39.5 °F 29.80 in WNW 19.6 mph 10.5 mph 50% 0.00 in 800.00 W/m2
10:49 58.1 °F 40.1 °F 29.80 in NW 20.7 mph 11.4 mph 51% 0.00 in 812.00 W/m2
10:55 58.4 °F 40.3 °F 29.80 in NW 14.0 mph 10.9 mph 51% 0.00 in 819.00 W/m2
10:59 58.5 °F 39.4 °F 29.81 in NNW 17.3 mph 15.0 mph 49% 0.00 in 830.00 W/m2
11:04 58.6 °F 39.5 °F 29.81 in NNW 18.0 mph 12.0 mph 49% 0.00 in 838.00 W/m2
11:10 59.1 °F 38.3 °F 29.81 in NNW 19.6 mph 12.6 mph 46% 0.00 in 851.00 W/m2
11:14 58.8 °F 36.9 °F 29.81 in WNW 19.6 mph 13.1 mph 44% 0.00 in 860.00 W/m2
11:19 58.9 °F 37.0 °F 29.81 in NNW 20.0 mph 11.6 mph 44% 0.00 in 867.00 W/m2
11:24 59.1 °F 36.6 °F 29.81 in NNW 20.7 mph 13.5 mph 43% 0.00 in 870.00 W/m2
11:29 59.6 °F 37.1 °F 29.81 in NNW 18.0 mph 12.4 mph 43% 0.00 in 882.00 W/m2
11:34 59.7 °F 37.2 °F 29.82 in NNW 16.1 mph 9.5 mph 43% 0.00 in 891.00 W/m2
11:39 59.8 °F 36.6 °F 29.82 in NW 19.6 mph 10.7 mph 42% 0.00 in 895.00 W/m2
11:44 59.8 °F 36.6 °F 29.82 in WNW 16.1 mph 8.1 mph 42% 0.00 in 900.00 W/m2
11:50 60.0 °F 36.2 °F 29.82 in NW 13.8 mph 8.0 mph 41% 0.00 in 909.00 W/m2
11:54 60.0 °F 34.3 °F 29.82 in NW 20.7 mph 11.9 mph 38% 0.00 in 911.00 W/m2
11:59 60.2 °F 37.6 °F 29.82 in NW 18.4 mph 11.8 mph 43% 0.00 in 909.00 W/m2
12:04 60.2 °F 34.5 °F 29.82 in NW 16.1 mph 11.7 mph 38% 0.00 in 875.00 W/m2
12:09 60.1 °F 36.9 °F 29.82 in WNW 11.5 mph 11.5 mph 42% 0.00 in 819.00 W/m2
12:14 60.0 °F 35.6 °F 29.82 in NW 16.1 mph 8.6 mph 40% 0.00 in 786.00 W/m2
12:19 60.2 °F 36.4 °F 29.82 in NNW 16.1 mph 10.8 mph 41% 0.00 in 770.00 W/m2
12:24 60.8 °F 36.9 °F 29.82 in NW 11.5 mph 10.5 mph 41% 0.00 in 780.00 W/m2
12:29 60.7 °F 36.8 °F 29.82 in NNW 17.3 mph 11.8 mph 41% 0.00 in 817.00 W/m2
12:34 60.7 °F 36.8 °F 29.82 in NW 21.9 mph 8.6 mph 41% 0.00 in 868.00 W/m2
12:39 61.0 °F 35.2 °F 29.83 in WNW 21.9 mph 8.0 mph 38% 0.00 in 926.00 W/m2
12:44 60.8 °F 34.3 °F 29.83 in NW 16.1 mph 10.6 mph 37% 0.00 in 939.00 W/m2
12:49 61.0 °F 37.1 °F 29.83 in North 18.4 mph 9.4 mph 41% 0.00 in 939.00 W/m2
12:54 61.5 °F 38.2 °F 29.83 in NNW 11.5 mph 7.3 mph 42% 0.00 in 939.00 W/m2
12:59 61.3 °F 35.5 °F 29.83 in NW 15.0 mph 9.2 mph 38% 0.00 in 944.00 W/m2
13:04 61.2 °F 36.7 °F 29.83 in NNW 18.4 mph 7.2 mph 40% 0.00 in 935.00 W/m2
13:09 61.7 °F 37.7 °F 29.83 in NW 15.0 mph 7.4 mph 41% 0.00 in 942.00 W/m2
13:14 61.7 °F 37.7 °F 29.83 in WNW 17.3 mph 13.1 mph 41% 0.00 in 935.00 W/m2
13:19 61.6 °F 37.7 °F 29.83 in NW 13.8 mph 5.7 mph 41% 0.00 in 933.00 W/m2
13:24 62.0 °F 39.8 °F 29.83 in West 12.0 mph 9.0 mph 44% 0.00 in 930.00 W/m2
13:29 62.0 °F 38.6 °F 29.83 in NW 10.0 mph 8.9 mph 42% 0.00 in 932.00 W/m2
13:34 61.9 °F 39.1 °F 29.83 in NW 12.7 mph 9.3 mph 43% 0.00 in 923.00 W/m2
13:39 61.8 °F 38.4 °F 29.83 in WNW 16.1 mph 6.6 mph 42% 0.00 in 918.00 W/m2
13:45 61.9 °F 37.9 °F 29.83 in West 19.6 mph 10.5 mph 41% 0.00 in 912.00 W/m2
13:49 61.7 °F 37.7 °F 29.84 in NW 17.3 mph 11.3 mph 41% 0.00 in 912.00 W/m2
13:54 61.8 °F 39.6 °F 29.84 in NW 18.4 mph 8.8 mph 44% 0.00 in 902.00 W/m2
13:59 62.1 °F 39.3 °F 29.84 in West 17.3 mph 8.4 mph 43% 0.00 in 902.00 W/m2
14:04 62.1 °F 38.7 °F 29.84 in WNW 19.6 mph 11.0 mph 42% 0.00 in 896.00 W/m2
14:09 62.1 °F 37.5 °F 29.84 in North 20.7 mph 10.5 mph 40% 0.00 in 893.00 W/m2
14:15 62.1 °F 38.7 °F 29.84 in WNW 17.3 mph 10.6 mph 42% 0.00 in 881.00 W/m2
14:19 62.5 °F 37.2 °F 29.84 in NW 19.6 mph 11.1 mph 39% 0.00 in 874.00 W/m2
14:24 62.4 °F 37.1 °F 29.84 in North 13.8 mph 8.8 mph 39% 0.00 in 867.00 W/m2
14:30 62.8 °F 40.0 °F 29.84 in NW 19.6 mph 12.3 mph 43% 0.00 in 860.00 W/m2
14:34 62.6 °F 36.6 °F 29.84 in WNW 19.6 mph 13.4 mph 38% 0.00 in 853.00 W/m2
14:40 62.6 °F 37.9 °F 29.84 in WNW 18.4 mph 10.3 mph 40% 0.00 in 847.00 W/m2
14:44 62.9 °F 35.5 °F 29.85 in WNW 19.6 mph 14.4 mph 36% 0.00 in 842.00 W/m2
14:49 62.8 °F 36.1 °F 29.84 in WSW 20.7 mph 9.8 mph 37% 0.00 in 833.00 W/m2
14:54 62.9 °F 36.2 °F 29.84 in NW 15.0 mph 11.9 mph 37% 0.00 in 821.00 W/m2
14:59 62.9 °F 35.5 °F 29.84 in WNW 18.4 mph 11.1 mph 36% 0.00 in 812.00 W/m2
15:05 62.9 °F 36.9 °F 29.84 in West 17.3 mph 9.8 mph 38% 0.00 in 793.00 W/m2
15:09 63.2 °F 36.5 °F 29.84 in West 16.1 mph 12.1 mph 37% 0.00 in 784.00 W/m2
15:14 63.3 °F 38.6 °F 29.84 in WNW 17.3 mph 11.6 mph 40% 0.00 in 775.00 W/m2
15:19 63.4 °F 37.3 °F 29.84 in WSW 16.1 mph 11.8 mph 38% 0.00 in 765.00 W/m2
15:24 63.3 °F 37.2 °F 29.84 in WNW 17.3 mph 9.8 mph 38% 0.00 in 758.00 W/m2
15:30 63.6 °F 37.5 °F 29.84 in NW 10.4 mph 7.0 mph 38% 0.00 in 747.00 W/m2
15:34 63.5 °F 36.0 °F 29.85 in NNW 16.1 mph 10.7 mph 36% 0.00 in 733.00 W/m2
15:40 63.5 °F 36.0 °F 29.84 in NW 17.3 mph 10.7 mph 36% 0.00 in 722.00 W/m2
15:44 63.5 °F 35.3 °F 29.85 in NW 20.7 mph 12.3 mph 35% 0.00 in 712.00 W/m2
15:49 63.7 °F 36.9 °F 29.85 in WNW 12.7 mph 9.3 mph 37% 0.00 in 691.00 W/m2
15:54 64.1 °F 36.6 °F 29.85 in WNW 24.2 mph 9.6 mph 36% 0.00 in 684.00 W/m2
15:59 64.1 °F 35.9 °F 29.85 in NW 16.1 mph 11.3 mph 35% 0.00 in 670.00 W/m2
16:04 64.0 °F 34.3 °F 29.85 in WNW 20.7 mph 12.6 mph 33% 0.00 in 663.00 W/m2
16:10 63.9 °F 35.0 °F 29.85 in NNW 16.1 mph 10.6 mph 34% 0.00 in 640.00 W/m2
16:14 63.8 °F 36.3 °F 29.85 in WNW 12.7 mph 10.6 mph 36% 0.00 in 671.00 W/m2
16:19 63.9 °F 37.1 °F 29.85 in NNW 11.5 mph 8.0 mph 37% 0.00 in 668.00 W/m2
16:24 64.0 °F 35.8 °F 29.85 in WNW 18.4 mph 8.2 mph 35% 0.00 in 594.00 W/m2
16:29 63.8 °F 34.9 °F 29.84 in NW 19.6 mph 8.1 mph 34% 0.00 in 575.00 W/m2
16:34 63.9 °F 35.7 °F 29.85 in NW 13.8 mph 5.8 mph 35% 0.00 in 568.00 W/m2
16:39 64.0 °F 34.3 °F 29.85 in NNW 16.1 mph 10.2 mph 33% 0.00 in 550.00 W/m2
16:44 64.1 °F 35.9 °F 29.85 in WNW 12.0 mph 10.4 mph 35% 0.00 in 534.00 W/m2
16:50 63.8 °F 33.4 °F 29.85 in WNW 13.8 mph 8.8 mph 32% 0.00 in 517.00 W/m2
16:54 63.6 °F 33.9 °F 29.85 in NW 18.4 mph 7.4 mph 33% 0.00 in 512.00 W/m2
16:59 63.8 °F 34.1 °F 29.85 in NNW 17.3 mph 11.9 mph 33% 0.00 in 485.00 W/m2
17:04 63.7 °F 33.3 °F 29.85 in West 16.0 mph 10.9 mph 32% 0.00 in 469.00 W/m2
17:09 63.4 °F 33.0 °F 29.85 in North 16.1 mph 10.6 mph 32% 0.00 in 457.00 W/m2
17:15 63.2 °F 30.4 °F 29.86 in West 12.7 mph 8.2 mph 29% 0.00 in 439.00 W/m2
17:19 63.1 °F 31.1 °F 29.86 in NNW 15.0 mph 10.7 mph 30% 0.00 in 417.00 W/m2
17:24 63.1 °F 31.1 °F 29.86 in NW 18.4 mph 12.9 mph 30% 0.00 in 401.00 W/m2
17:29 62.9 °F 31.8 °F 29.86 in NW 19.6 mph 9.1 mph 31% 0.00 in 390.00 W/m2
17:34 62.9 °F 32.6 °F 29.86 in WNW 16.1 mph 9.5 mph 32% 0.00 in 374.00 W/m2
17:39 62.8 °F 31.7 °F 29.86 in WNW 17.3 mph 10.5 mph 31% 0.00 in 353.00 W/m2
17:44 62.7 °F 32.4 °F 29.86 in NW 18.0 mph 11.3 mph 32% 0.00 in 338.00 W/m2
17:49 62.6 °F 32.3 °F 29.86 in WSW 11.5 mph 8.6 mph 32% 0.00 in 325.00 W/m2
17:54 62.7 °F 32.4 °F 29.86 in WNW 12.7 mph 6.0 mph 32% 0.00 in 306.00 W/m2
17:59 62.5 °F 32.2 °F 29.87 in WNW 13.8 mph 10.0 mph 32% 0.00 in 288.00 W/m2
18:04 62.3 °F 32.8 °F 29.87 in WNW 12.7 mph 9.4 mph 33% 0.00 in 272.00 W/m2
18:09 62.3 °F 32.8 °F 29.87 in NW 11.0 mph 7.3 mph 33% 0.00 in 250.00 W/m2
18:15 62.0 °F 31.8 °F 29.87 in WNW 17.3 mph 11.2 mph 32% 0.00 in 230.00 W/m2
18:19 61.8 °F 32.4 °F 29.87 in WNW 12.7 mph 8.6 mph 33% 0.00 in 207.00 W/m2
18:24 61.5 °F 31.3 °F 29.87 in NW 13.8 mph 7.4 mph 32% 0.00 in 185.00 W/m2
18:29 61.2 °F 31.8 °F 29.87 in NW 10.4 mph 7.6 mph 33% 0.00 in 162.00 W/m2
18:34 61.0 °F 31.7 °F 29.87 in NW 15.0 mph 7.3 mph 33% 0.00 in 65.00 W/m2
18:39 60.7 °F 30.6 °F 29.87 in WNW 15.0 mph 7.4 mph 32% 0.00 in 30.00 W/m2
18:44 60.5 °F 31.2 °F 29.87 in NW 13.8 mph 9.2 mph 33% 0.00 in 28.00 W/m2
18:49 60.2 °F 31.0 °F 29.87 in WNW 12.7 mph 7.2 mph 33% 0.00 in 26.00 W/m2
18:54 60.0 °F 32.2 °F 29.87 in NW 13.0 mph 9.2 mph 35% 0.00 in 25.00 W/m2
18:59 59.8 °F 32.1 °F 29.88 in West 8.1 mph 5.7 mph 35% 0.00 in 23.00 W/m2
19:04 59.6 °F 31.9 °F 29.87 in NW 12.7 mph 6.8 mph 35% 0.00 in 21.00 W/m2
19:10 59.4 °F 31.0 °F 29.87 in WNW 11.5 mph 6.7 mph 34% 0.00 in 19.00 W/m2
19:14 59.1 °F 32.1 °F 29.88 in WNW 10.4 mph 4.9 mph 36% 0.00 in 18.00 W/m2
19:20 58.8 °F 32.6 °F 29.88 in WNW 8.1 mph 4.4 mph 37% 0.00 in 16.00 W/m2
19:25 58.5 °F 32.3 °F 29.87 in WNW 11.5 mph 6.3 mph 37% 0.00 in 12.00 W/m2
19:29 58.2 °F 31.3 °F 29.88 in WNW 10.4 mph 5.2 mph 36% 0.00 in 11.00 W/m2
19:34 58.0 °F 31.2 °F 29.88 in NW 13.8 mph 5.9 mph 36% 0.00 in 7.00 W/m2
19:39 57.6 °F 31.5 °F 29.88 in West 9.2 mph 7.0 mph 37% 0.00 in 5.00 W/m2
19:44 57.3 °F 31.9 °F 29.88 in WNW 7.0 mph 3.0 mph 38% 0.00 in 0.00 W/m2
19:49 56.9 °F 32.2 °F 29.88 in NNW 9.2 mph 5.7 mph 39% 0.00 in 0.00 W/m2
19:54 56.7 °F 32.0 °F 29.88 in NW 8.1 mph 5.6 mph 39% 0.00 in 0.00 W/m2
19:59 56.5 °F 31.8 °F 29.88 in WNW 6.9 mph 4.0 mph 39% 0.00 in 0.00 W/m2
20:05 56.3 °F 31.6 °F 29.88 in NW 6.9 mph 4.3 mph 39% 0.00 in 0.00 W/m2
20:09 56.0 °F 31.4 °F 29.88 in NW 9.2 mph 4.5 mph 39% 0.00 in 0.00 W/m2
20:14 55.9 °F 31.3 °F 29.88 in NW 10.4 mph 4.3 mph 39% 0.00 in 0.00 W/m2
20:19 55.6 °F 31.6 °F 29.89 in NW 3.5 mph 2.9 mph 40% 0.00 in 0.00 W/m2
20:24 55.3 °F 31.4 °F 29.89 in NW 5.8 mph 3.9 mph 40% 0.00 in 0.00 W/m2
20:29 55.1 °F 31.8 °F 29.89 in WNW 6.9 mph 2.1 mph 41% 0.00 in 0.00 W/m2
20:34 55.0 °F 31.7 °F 29.90 in NW 6.9 mph 3.5 mph 41% 0.00 in 0.00 W/m2
20:39 54.8 °F 32.1 °F 29.90 in WNW 5.0 mph 4.1 mph 42% 0.00 in 0.00 W/m2
20:44 54.5 °F 31.9 °F 29.90 in WNW 5.8 mph 1.8 mph 42% 0.00 in 0.00 W/m2
20:49 54.3 °F 31.7 °F 29.90 in WNW 4.6 mph 1.8 mph 42% 0.00 in 0.00 W/m2
20:54 54.0 °F 32.0 °F 29.90 in WNW 6.9 mph 1.3 mph 43% 0.00 in 0.00 W/m2
20:59 53.7 °F 31.7 °F 29.90 in NW 6.9 mph 3.1 mph 43% 0.00 in 0.00 W/m2
21:04 53.5 °F 32.1 °F 29.90 in WNW 4.6 mph 2.7 mph 44% 0.00 in 0.00 W/m2
21:09 53.4 °F 32.0 °F 29.91 in WNW 8.1 mph 2.8 mph 44% 0.00 in 0.00 W/m2
21:14 53.3 °F 31.4 °F 29.91 in WNW 4.6 mph 3.5 mph 43% 0.00 in 0.00 W/m2
21:19 53.5 °F 31.5 °F 29.91 in West 8.1 mph 1.6 mph 43% 0.00 in 0.00 W/m2
21:24 53.6 °F 31.6 °F 29.91 in NW 3.5 mph 1.1 mph 43% 0.00 in 0.00 W/m2
21:29 53.5 °F 31.5 °F 29.91 in WNW 5.0 mph 2.5 mph 43% 0.00 in 0.00 W/m2
21:34 53.4 °F 31.4 °F 29.91 in West 5.0 mph 2.8 mph 43% 0.00 in 0.00 W/m2
21:39 53.3 °F 31.4 °F 29.91 in WNW 4.6 mph 3.1 mph 43% 0.00 in 0.00 W/m2
21:44 53.3 °F 31.9 °F 29.91 in West 3.5 mph 1.8 mph 44% 0.00 in 0.00 W/m2
21:49 53.2 °F 31.3 °F 29.91 in NW 5.8 mph 2.5 mph 43% 0.00 in 0.00 W/m2
21:54 53.1 °F 31.2 °F 29.91 in West 6.0 mph 2.5 mph 43% 0.00 in 0.00 W/m2
21:59 53.1 °F 31.2 °F 29.91 in West 5.8 mph 3.7 mph 43% 0.00 in 0.00 W/m2
22:04 53.1 °F 31.2 °F 29.91 in West 5.8 mph 2.8 mph 43% 0.00 in 0.00 W/m2
22:09 53.0 °F 31.6 °F 29.91 in WNW 5.0 mph 2.7 mph 44% 0.00 in 0.00 W/m2
22:14 52.7 °F 31.4 °F 29.92 in WSW 5.0 mph 3.0 mph 44% 0.00 in 0.00 W/m2
22:19 52.6 °F 31.8 °F 29.91 in WSW 5.8 mph 3.0 mph 45% 0.00 in 0.00 W/m2
22:24 52.6 °F 31.8 °F 29.92 in WSW 9.2 mph 3.8 mph 45% 0.00 in 0.00 W/m2
22:30 52.7 °F 31.9 °F 29.91 in NW 8.1 mph 3.7 mph 45% 0.00 in 0.00 W/m2
22:34 52.6 °F 32.4 °F 29.91 in NW 8.1 mph 4.2 mph 46% 0.00 in 0.00 W/m2
22:40 52.5 °F 32.3 °F 29.91 in NW 8.1 mph 3.9 mph 46% 0.00 in 0.00 W/m2
22:44 52.3 °F 32.6 °F 29.92 in West 5.0 mph 3.8 mph 47% 0.00 in 0.00 W/m2
22:49 52.0 °F 32.4 °F 29.92 in West 6.0 mph 4.4 mph 47% 0.00 in 0.00 W/m2
22:54 51.9 °F 32.3 °F 29.92 in NW 8.1 mph 3.0 mph 47% 0.00 in 0.00 W/m2
22:59 51.8 °F 32.7 °F 29.92 in NW 9.2 mph 4.3 mph 48% 0.00 in 0.00 W/m2
23:04 51.7 °F 32.6 °F 29.92 in WSW 5.8 mph 2.8 mph 48% 0.00 in 0.00 W/m2
23:09 51.5 °F 33.0 °F 29.92 in WNW 6.0 mph 3.0 mph 49% 0.00 in 0.00 W/m2
23:14 51.5 °F 33.0 °F 29.92 in West 8.1 mph 2.9 mph 49% 0.00 in 0.00 W/m2
23:19 51.4 °F 32.9 °F 29.92 in WSW 8.0 mph 1.7 mph 49% 0.00 in 0.00 W/m2
23:24 51.2 °F 32.7 °F 29.92 in WNW 3.5 mph 3.7 mph 49% 0.00 in 0.00 W/m2
23:29 51.2 °F 32.7 °F 29.92 in WNW 4.0 mph 3.5 mph 49% 0.00 in 0.00 W/m2
23:34 51.2 °F 32.7 °F 29.92 in NW 7.0 mph 4.4 mph 49% 0.00 in 0.00 W/m2
23:39 51.4 °F 32.3 °F 29.92 in NNW 8.1 mph 4.9 mph 48% 0.00 in 0.00 W/m2
23:45 51.5 °F 32.4 °F 29.92 in WNW 9.2 mph 4.2 mph 48% 0.00 in 0.00 W/m2
23:49 51.3 °F 32.3 °F 29.92 in WNW 4.6 mph 2.9 mph 48% 0.00 in 0.00 W/m2
23:54 51.2 °F 32.7 °F 29.92 in West 4.6 mph 3.8 mph 49% 0.00 in 0.00 W/m2
23:59 50.9 °F 32.4 °F 29.93 in West 4.0 mph 2.9 mph 49% 0.00 in 0.00 W/m2
Bourbonnais, Illinois, USA
Compliments of Weather Underground - 4 mb